Impacts TAF Board
For situational awareness. Not to be used for flight planning purposes.
IDs:

KPQI - Presque Isle/N Maine, ME, US

Issued at 1720 UTC 01 Feb 2023
Updated at 2255 UTC 01 Feb 2023
Potential Impact None Slight Moderate High
Time2156Z 01/23Z 02/00Z 02/01Z 02/02Z 02/03Z 02/04Z 02/05Z 02/06Z 02/07Z 02/08Z 02/09Z 02/10Z 02/11Z>>
Type OBS PRVL PRVL PRVL PRVL PRVL PRVL PRVL PRVL PRVL PRVL PRVL PRVL PRVL
VIS 10 >6 >6 >6 >6 >6 >6 >6 >6 >6 >6 >6 >6 >6
CIG -- -- -- -- -- -- -- -- -- -- -- -- -- --
Cover CLR FEW FEW FEW FEW FEW SCT SCT SCT SCT SCT SCT SCT SCT
FltCat VFR VFR VFR VFR VFR VFR VFR VFR VFR VFR VFR VFR VFR VFR
WX -- -- -- -- -- -- -- -- -- -- -- -- -- --
WDir 150 200 200 200 200 200 200 200 200 200 200 200 200 200
WSpd 7 5 5 5 5 5 4 4 4 4 4 4 4 4
WGst -- -- -- -- -- -- -- -- -- -- -- -- -- --
WSHgt -- -- -- -- -- -- -- -- -- -- -- -- -- --
WSDir -- -- -- -- -- -- -- -- -- -- -- -- -- --
WSSpd -- -- -- -- -- -- -- -- -- -- -- -- -- --

NOTE: LAMP data beyond the time of the TAF data is denoted as LAMP in Type and colored magenta.

Raw TAF
KPQI 011720Z 0118/0218 36004KT P6SM FEW200
  FM012100 20005KT P6SM FEW200
  FM020400 20004KT P6SM SCT050
  FM021300 20007KT P6SM BKN100


Raw METAR
KPQI 012156Z AUTO 15007KT 10SM CLR M11/M17 A3011 RMK AO2 SLP240 T11111167
KPQI 012056Z AUTO 15006KT 10SM CLR M10/M16 A3011 RMK AO2 SLP240 T11001161 56010
KPQI 011956Z AUTO VRB03KT 10SM CLR M08/M16 A3012 RMK AO2 SLP242 T10781161

METAR Board
Radar Display
Forecast Discussion

For situational awareness. Not to be used for flight planning purposes.